createdAt,value
2023-05-17T00:00:10.278Z,0.52
2023-05-17T00:01:10.311Z,0.51
2023-05-17T00:02:10.325Z,0.51
2023-05-17T00:03:10.433Z,0.51
2023-05-17T00:04:10.428Z,0.53
2023-05-17T00:05:10.469Z,0.52
2023-05-17T00:06:10.497Z,0.52
2023-05-17T00:07:10.444Z,0.51
2023-05-17T00:08:10.527Z,0.51
2023-05-17T00:09:10.485Z,0.51
2023-05-17T00:10:10.540Z,0.51
2023-05-17T00:11:10.693Z,0.51
2023-05-17T00:12:10.579Z,0.53
2023-05-17T00:13:10.605Z,0.53
2023-05-17T00:14:10.667Z,0.51
2023-05-17T00:15:10.729Z,0.51
2023-05-17T00:16:10.684Z,0.53
2023-05-17T00:17:10.689Z,0.52
2023-05-17T00:18:10.820Z,0.53
2023-05-17T00:19:10.969Z,0.53
2023-05-17T00:20:10.832Z,0.52
2023-05-17T00:21:10.822Z,0.52
2023-05-17T00:22:10.826Z,0.52
2023-05-17T00:23:10.895Z,0.52
2023-05-17T00:24:10.873Z,0.52
2023-05-17T00:25:10.911Z,0.52
2023-05-17T00:26:10.959Z,0.52
2023-05-17T00:27:10.974Z,0.51
2023-05-17T00:28:10.973Z,0.52
2023-05-17T00:29:10.968Z,0.53
2023-05-17T00:30:11.042Z,0.53
2023-05-17T00:31:11.334Z,0.53
2023-05-17T00:32:11.100Z,0.51
2023-05-17T00:33:11.109Z,0.53
2023-05-17T00:34:11.126Z,0.52
2023-05-17T00:35:11.196Z,0.52
2023-05-17T00:36:11.246Z,0.53
2023-05-17T00:37:11.245Z,0.53
2023-05-17T00:38:11.248Z,0.53
2023-05-17T00:39:11.293Z,0.53
2023-05-17T00:40:11.302Z,0.52
2023-05-17T00:41:11.289Z,0.53
2023-05-17T00:42:11.432Z,0.52
2023-05-17T00:43:11.386Z,0.52
2023-05-17T00:44:11.398Z,0.53
2023-05-17T00:45:11.449Z,0.52
2023-05-17T00:46:11.517Z,0.53
2023-05-17T00:47:11.593Z,0.53
2023-05-17T00:48:11.632Z,0.52
2023-05-17T00:49:11.520Z,0.53
2023-05-17T00:50:11.628Z,0.53
2023-05-17T00:51:11.644Z,0.52
2023-05-17T00:52:11.647Z,0.52
2023-05-17T00:53:11.657Z,0.52
2023-05-17T00:54:11.678Z,0.53
2023-05-17T00:55:11.779Z,0.52
2023-05-17T00:56:11.747Z,0.52
2023-05-17T00:57:11.839Z,0.53
2023-05-17T00:58:11.790Z,0.52
2023-05-17T00:59:11.875Z,0.52
2023-05-17T01:00:11.875Z,0.52
2023-05-17T01:01:11.922Z,0.52
2023-05-17T01:02:11.925Z,0.53
2023-05-17T01:03:12.150Z,0.52
2023-05-17T01:04:12.068Z,0.52
2023-05-17T01:05:12.002Z,0.53
2023-05-17T01:06:11.999Z,0.53
2023-05-17T01:07:12.068Z,0.52
2023-05-17T01:08:12.112Z,0.51
2023-05-17T01:09:12.171Z,0.52
2023-05-17T01:10:12.190Z,0.53
2023-05-17T01:11:12.172Z,0.51
2023-05-17T01:12:12.207Z,0.51
2023-05-17T01:13:12.227Z,0.50
2023-05-17T01:14:12.262Z,0.52
2023-05-17T01:15:12.317Z,0.52
2023-05-17T01:16:12.358Z,0.53
2023-05-17T01:17:12.361Z,0.52
2023-05-17T01:18:12.460Z,0.52
2023-05-17T01:19:12.659Z,0.52
2023-05-17T01:20:12.557Z,0.52
2023-05-17T01:21:12.511Z,0.52
2023-05-17T01:22:12.493Z,0.52
2023-05-17T01:23:12.529Z,0.52
2023-05-17T01:24:12.531Z,0.51
2023-05-17T01:25:12.549Z,0.53
2023-05-17T01:26:12.542Z,0.55
2023-05-17T01:27:12.601Z,0.54
2023-05-17T01:28:12.662Z,0.53
2023-05-17T01:29:12.614Z,0.53
2023-05-17T01:30:12.655Z,0.53
2023-05-17T01:31:12.656Z,0.52
2023-05-17T01:32:12.751Z,0.53
2023-05-17T01:33:12.801Z,0.52
2023-05-17T01:34:12.742Z,0.52
2023-05-17T01:35:12.818Z,0.52
2023-05-17T01:36:12.811Z,0.53
2023-05-17T01:37:12.814Z,0.53
2023-05-17T01:38:12.875Z,0.53
2023-05-17T01:39:12.939Z,0.53
2023-05-17T01:40:12.962Z,0.54
2023-05-17T01:41:12.913Z,0.54
2023-05-17T01:42:12.904Z,0.54
2023-05-17T01:43:12.927Z,0.52
2023-05-17T01:44:12.935Z,0.53
2023-05-17T01:45:12.991Z,0.53
2023-05-17T01:46:12.974Z,0.53
2023-05-17T01:47:12.971Z,0.52
2023-05-17T01:48:13.054Z,0.53
2023-05-17T01:49:13.042Z,0.52
2023-05-17T01:50:13.080Z,0.52
2023-05-17T01:51:13.122Z,0.53
2023-05-17T01:52:13.117Z,0.53
2023-05-17T01:53:13.138Z,0.54
2023-05-17T01:54:13.132Z,0.53
2023-05-17T01:55:13.148Z,0.53
2023-05-17T01:56:13.220Z,0.53
2023-05-17T01:57:13.244Z,0.53
2023-05-17T01:58:13.233Z,0.54
2023-05-17T01:59:13.225Z,0.54
2023-05-17T02:00:13.275Z,0.53
2023-05-17T02:01:13.369Z,0.53
2023-05-17T02:02:13.360Z,0.53
2023-05-17T02:03:13.309Z,0.54
2023-05-17T02:04:13.430Z,0.54
2023-05-17T02:05:13.448Z,0.54
2023-05-17T02:06:13.379Z,0.54
2023-05-17T02:07:13.554Z,0.53
2023-05-17T02:08:13.446Z,0.53
2023-05-17T02:09:13.504Z,0.52
2023-05-17T02:10:13.545Z,0.52
2023-05-17T02:11:13.527Z,0.53
2023-05-17T02:12:13.545Z,0.51
2023-05-17T02:13:13.650Z,0.54
2023-05-17T02:14:13.645Z,0.54
2023-05-17T02:15:13.604Z,0.53
2023-05-17T02:16:13.689Z,0.53
2023-05-17T02:17:13.695Z,0.53
2023-05-17T02:18:13.821Z,0.52
2023-05-17T02:19:13.811Z,0.53
2023-05-17T02:20:13.708Z,0.53
2023-05-17T02:21:13.858Z,0.53
2023-05-17T02:22:13.748Z,0.54
2023-05-17T02:23:13.885Z,0.53
2023-05-17T02:24:13.847Z,0.53
2023-05-17T02:25:13.852Z,0.53
2023-05-17T02:26:13.937Z,0.53
2023-05-17T02:27:13.941Z,0.53
2023-05-17T02:28:13.920Z,0.52
2023-05-17T02:29:13.954Z,0.52
2023-05-17T02:30:15.087Z,0.53
2023-05-17T02:31:13.983Z,0.54
2023-05-17T02:32:14.058Z,0.53
2023-05-17T02:33:14.108Z,0.53
2023-05-17T02:34:14.109Z,0.53
2023-05-17T02:35:14.100Z,0.54
2023-05-17T02:36:14.151Z,0.52
2023-05-17T02:37:14.194Z,0.54
2023-05-17T02:38:14.230Z,0.53
2023-05-17T02:39:14.303Z,0.55
2023-05-17T02:40:14.265Z,0.54
2023-05-17T02:41:14.271Z,0.54
2023-05-17T02:42:14.329Z,0.55
2023-05-17T02:43:14.350Z,0.54
2023-05-17T02:44:14.370Z,0.55
2023-05-17T02:45:14.384Z,0.56
2023-05-17T02:46:14.399Z,0.53
2023-05-17T02:47:14.454Z,0.54
2023-05-17T02:48:14.506Z,0.56
2023-05-17T02:49:14.582Z,0.54
2023-05-17T02:50:14.528Z,0.53
2023-05-17T02:51:14.545Z,0.54
2023-05-17T02:52:14.562Z,0.53
2023-05-17T02:53:14.618Z,0.54
2023-05-17T02:54:14.672Z,0.55
2023-05-17T02:55:14.733Z,0.53
2023-05-17T02:56:14.670Z,0.54
2023-05-17T02:57:14.671Z,0.54
2023-05-17T02:58:14.742Z,0.54
2023-05-17T02:59:14.762Z,0.54
2023-05-17T03:00:14.782Z,0.53
2023-05-17T03:01:14.810Z,0.54
2023-05-17T03:02:14.844Z,0.53
2023-05-17T03:03:14.963Z,0.55
2023-05-17T03:04:14.943Z,0.55
2023-05-17T03:05:14.937Z,0.54
2023-05-17T03:06:14.944Z,0.55
2023-05-17T03:07:14.981Z,0.55
2023-05-17T03:08:15.011Z,0.54
2023-05-17T03:09:15.063Z,0.54
2023-05-17T03:10:15.035Z,0.54
2023-05-17T03:11:15.132Z,0.54
2023-05-17T03:12:15.123Z,0.54
2023-05-17T03:13:15.163Z,0.52
2023-05-17T03:14:15.184Z,0.54
2023-05-17T03:15:15.182Z,0.53
2023-05-17T03:16:15.208Z,0.53
2023-05-17T03:17:15.281Z,0.54
2023-05-17T03:18:15.341Z,0.55
2023-05-17T03:19:15.402Z,0.55
2023-05-17T03:20:15.413Z,0.54
2023-05-17T03:21:15.413Z,0.54
2023-05-17T03:22:15.369Z,0.54
2023-05-17T03:23:15.472Z,0.54
2023-05-17T03:24:15.482Z,0.55
2023-05-17T03:25:15.522Z,0.54
2023-05-17T03:26:15.564Z,0.54
2023-05-17T03:27:15.669Z,0.55
2023-05-17T03:28:15.602Z,0.55
2023-05-17T03:29:15.673Z,0.54
2023-05-17T03:30:15.663Z,0.55
2023-05-17T03:31:15.678Z,0.56
2023-05-17T03:32:15.739Z,0.54
2023-05-17T03:33:15.878Z,0.55
2023-05-17T03:34:15.801Z,0.55
2023-05-17T03:35:15.809Z,0.54
2023-05-17T03:36:15.853Z,0.54
2023-05-17T03:37:15.925Z,0.55
2023-05-17T03:38:15.875Z,0.56
2023-05-17T03:39:15.940Z,0.54
2023-05-17T03:40:15.946Z,0.54
2023-05-17T03:41:15.981Z,0.54
2023-05-17T03:42:16.072Z,0.54
2023-05-17T03:43:16.113Z,0.54
2023-05-17T03:44:16.083Z,0.56
2023-05-17T03:45:16.093Z,0.55
2023-05-17T03:46:16.109Z,0.53
2023-05-17T03:47:16.150Z,0.54
2023-05-17T03:48:16.242Z,0.55
2023-05-17T03:49:16.313Z,0.55
2023-05-17T03:50:16.233Z,0.56
2023-05-17T03:51:16.265Z,0.55
2023-05-17T03:52:16.284Z,0.55
2023-05-17T03:53:16.327Z,0.54
2023-05-17T03:54:16.348Z,0.55
2023-05-17T03:55:16.385Z,0.53
2023-05-17T03:56:16.397Z,0.54
2023-05-17T03:57:16.409Z,0.53
2023-05-17T03:58:16.480Z,0.55
2023-05-17T03:59:16.572Z,0.55
2023-05-17T04:00:16.553Z,0.56
2023-05-17T04:01:16.542Z,0.56
2023-05-17T04:02:16.548Z,0.55
2023-05-17T04:03:17.947Z,0.54
2023-05-17T04:04:16.610Z,0.55
2023-05-17T04:05:16.604Z,0.52
2023-05-17T04:06:16.574Z,0.52
2023-05-17T04:07:16.577Z,0.51
2023-05-17T04:08:16.540Z,0.50
2023-05-17T04:09:16.556Z,0.50
2023-05-17T04:10:16.545Z,0.51
2023-05-17T04:11:16.576Z,0.50
2023-05-17T04:12:16.563Z,0.50
2023-05-17T04:13:16.515Z,0.52
2023-05-17T04:14:16.534Z,0.51
2023-05-17T04:15:16.626Z,0.50
2023-05-17T04:16:16.549Z,0.50
2023-05-17T04:17:17.061Z,0.51
2023-05-17T04:18:16.563Z,0.50
2023-05-17T04:19:16.571Z,0.51
2023-05-17T04:20:16.488Z,0.51
2023-05-17T04:21:16.473Z,0.51
2023-05-17T04:22:16.448Z,0.51
2023-05-17T04:23:16.459Z,0.50
2023-05-17T04:24:16.449Z,0.51
2023-05-17T04:25:16.444Z,0.50
2023-05-17T04:26:16.465Z,0.51
2023-05-17T04:27:16.453Z,0.52
2023-05-17T04:28:16.419Z,0.52
2023-05-17T04:29:16.395Z,0.50
2023-05-17T04:30:16.393Z,0.50
2023-05-17T04:31:16.495Z,0.51
2023-05-17T04:32:16.404Z,0.50
2023-05-17T04:33:16.525Z,0.50
2023-05-17T04:34:16.393Z,0.51
2023-05-17T04:35:16.362Z,0.53
2023-05-17T04:36:16.374Z,0.51
2023-05-17T04:37:16.435Z,0.50
2023-05-17T04:38:16.372Z,0.52
2023-05-17T04:39:17.397Z,0.52
2023-05-17T04:40:16.306Z,0.51
2023-05-17T04:41:16.309Z,0.53
2023-05-17T04:42:16.310Z,0.53
2023-05-17T04:43:16.307Z,0.56
2023-05-17T04:44:16.279Z,0.54
2023-05-17T04:45:16.324Z,0.55
2023-05-17T04:46:16.373Z,0.55
2023-05-17T04:47:16.579Z,0.56
2023-05-17T04:48:16.606Z,0.54
2023-05-17T04:49:16.510Z,0.55
2023-05-17T04:50:16.573Z,0.54
2023-05-17T04:51:16.626Z,0.55
2023-05-17T04:52:16.691Z,0.56
2023-05-17T04:53:16.745Z,0.55
2023-05-17T04:54:16.787Z,0.54
2023-05-17T04:55:16.856Z,0.55
2023-05-17T04:56:16.924Z,0.56
2023-05-17T04:57:16.962Z,0.58
2023-05-17T04:58:17.023Z,0.56
2023-05-17T04:59:17.093Z,0.57
2023-05-17T05:00:17.180Z,0.56
2023-05-17T05:01:17.222Z,0.56
2023-05-17T05:02:17.328Z,0.56
2023-05-17T05:03:17.461Z,0.57
2023-05-17T05:04:17.471Z,0.56
2023-05-17T05:05:17.406Z,0.56
2023-05-17T05:06:17.444Z,0.54
2023-05-17T05:07:17.500Z,0.56
2023-05-17T05:08:17.513Z,0.56
2023-05-17T05:09:17.570Z,0.56
2023-05-17T05:10:17.656Z,0.56
2023-05-17T05:11:17.697Z,0.57
2023-05-17T05:12:17.858Z,0.56
2023-05-17T05:13:17.856Z,0.55
2023-05-17T05:14:17.859Z,0.56
2023-05-17T05:15:17.920Z,0.56
2023-05-17T05:16:17.993Z,0.56
2023-05-17T05:17:17.980Z,0.56
2023-05-17T05:18:18.232Z,0.57
2023-05-17T05:19:18.282Z,0.56
2023-05-17T05:20:18.173Z,0.57
2023-05-17T05:21:18.240Z,0.57
2023-05-17T05:22:18.255Z,0.56
2023-05-17T05:23:18.298Z,0.58
2023-05-17T05:24:18.357Z,0.57
2023-05-17T05:25:18.411Z,0.57
2023-05-17T05:26:18.482Z,0.58
2023-05-17T05:27:18.515Z,0.57
2023-05-17T05:28:18.607Z,0.56
2023-05-17T05:29:18.640Z,0.57
2023-05-17T05:30:18.665Z,0.57
2023-05-17T05:31:18.787Z,0.56
2023-05-17T05:32:18.784Z,0.56
2023-05-17T05:33:18.957Z,0.56
2023-05-17T05:34:18.859Z,0.56
2023-05-17T05:35:18.909Z,0.54
2023-05-17T05:36:18.990Z,0.55
2023-05-17T05:37:19.076Z,0.54
2023-05-17T05:38:19.127Z,0.54
2023-05-17T05:39:19.208Z,0.53
2023-05-17T05:40:19.259Z,0.54
2023-05-17T05:41:19.453Z,0.56
2023-05-17T05:42:19.353Z,0.57
2023-05-17T05:43:20.223Z,0.58
2023-05-17T05:44:19.454Z,0.59
2023-05-17T05:45:19.531Z,0.60
2023-05-17T05:46:19.611Z,0.63
2023-05-17T05:47:19.621Z,0.62
2023-05-17T05:48:19.789Z,0.61
2023-05-17T05:49:19.710Z,0.64
2023-05-17T05:50:19.800Z,0.63
2023-05-17T05:51:22.468Z,0.63
2023-05-17T05:52:19.802Z,0.63
2023-05-17T05:53:20.088Z,0.64
2023-05-17T05:54:19.800Z,0.65
2023-05-17T05:55:19.815Z,0.65
2023-05-17T05:56:19.758Z,0.64
2023-05-17T05:57:19.761Z,0.67
2023-05-17T05:58:19.743Z,0.65
2023-05-17T05:59:19.745Z,0.64
2023-05-17T06:00:19.738Z,0.60
2023-05-17T06:01:19.741Z,0.64
2023-05-17T06:02:19.778Z,0.63
2023-05-17T06:03:19.752Z,0.65
2023-05-17T06:04:22.589Z,0.64
2023-05-17T06:05:19.785Z,0.64
2023-05-17T06:06:19.874Z,0.65
2023-05-17T06:07:19.928Z,0.64
2023-05-17T06:08:19.703Z,0.65
2023-05-17T06:09:19.698Z,0.65
2023-05-17T06:10:19.689Z,0.67
2023-05-17T06:11:19.670Z,0.65
2023-05-17T06:12:19.645Z,0.67
2023-05-17T06:13:19.688Z,0.66
2023-05-17T06:14:19.649Z,0.67
2023-05-17T06:15:19.690Z,0.67
2023-05-17T06:16:19.744Z,0.68
2023-05-17T06:17:19.743Z,0.68
2023-05-17T06:18:20.017Z,0.68
2023-05-17T06:19:19.987Z,0.66
2023-05-17T06:20:19.935Z,0.70
2023-05-17T06:21:19.952Z,0.68
2023-05-17T06:22:20.017Z,0.69
2023-05-17T06:23:20.128Z,0.68
2023-05-17T06:24:20.095Z,0.67
2023-05-17T06:25:20.125Z,0.66
2023-05-17T06:26:20.189Z,0.67
2023-05-17T06:27:20.247Z,0.68
2023-05-17T06:28:20.403Z,0.67
2023-05-17T06:29:20.309Z,0.67
2023-05-17T06:30:20.385Z,0.66
2023-05-17T06:31:21.234Z,0.67
2023-05-17T06:32:20.414Z,0.65
2023-05-17T06:33:20.563Z,0.66
2023-05-17T06:34:20.512Z,0.66
2023-05-17T06:35:20.500Z,0.67
2023-05-17T06:36:20.544Z,0.66
2023-05-17T06:37:20.622Z,0.67
2023-05-17T06:38:20.635Z,0.66
2023-05-17T06:39:20.735Z,0.66
2023-05-17T06:40:20.673Z,0.69
2023-05-17T06:41:20.665Z,0.71
2023-05-17T06:42:20.704Z,0.72
2023-05-17T06:43:20.729Z,0.59
2023-05-17T06:44:20.820Z,0.53
2023-05-17T06:45:20.844Z,0.51
2023-05-17T06:46:20.879Z,0.53
2023-05-17T06:47:20.970Z,0.54
2023-05-17T06:48:21.105Z,0.54
2023-05-17T06:49:21.084Z,0.55
2023-05-17T06:50:21.149Z,0.53
2023-05-17T06:51:21.168Z,0.53
2023-05-17T06:52:21.241Z,0.53
2023-05-17T06:53:21.349Z,0.52
2023-05-17T06:54:21.880Z,0.52
2023-05-17T06:55:21.540Z,0.51
2023-05-17T06:56:21.422Z,0.50
2023-05-17T06:57:21.522Z,0.50
2023-05-17T06:58:21.509Z,0.52
2023-05-17T06:59:21.598Z,0.51
2023-05-17T07:00:21.643Z,0.51
2023-05-17T07:01:21.634Z,0.50
2023-05-17T07:02:21.660Z,0.52
2023-05-17T07:03:21.767Z,0.50
2023-05-17T07:04:21.799Z,0.51
2023-05-17T07:05:21.857Z,0.51
2023-05-17T07:06:21.838Z,0.51
2023-05-17T07:07:21.806Z,0.52
2023-05-17T07:08:21.882Z,0.51
2023-05-17T07:09:21.930Z,0.51
2023-05-17T07:10:21.999Z,0.50
2023-05-17T07:11:21.966Z,0.51
2023-05-17T07:12:21.988Z,0.51
2023-05-17T07:13:22.061Z,0.51
2023-05-17T07:14:22.073Z,0.51
2023-05-17T07:15:22.107Z,0.51
2023-05-17T07:16:22.130Z,0.52
2023-05-17T07:17:22.162Z,0.53
2023-05-17T07:18:22.268Z,0.52
2023-05-17T07:19:22.293Z,0.51
2023-05-17T07:20:22.240Z,0.52
2023-05-17T07:21:22.213Z,0.52
2023-05-17T07:22:22.252Z,0.53
2023-05-17T07:23:22.301Z,0.52
2023-05-17T07:24:22.304Z,0.54
2023-05-17T07:25:22.285Z,0.51
2023-05-17T07:26:22.328Z,0.50
2023-05-17T07:27:22.339Z,0.54
2023-05-17T07:28:22.373Z,0.54
2023-05-17T07:29:22.377Z,0.56
2023-05-17T07:30:22.377Z,0.54
2023-05-17T07:31:22.428Z,0.54
2023-05-17T07:32:22.447Z,0.52
2023-05-17T07:33:22.446Z,0.52
2023-05-17T07:34:22.491Z,0.52
2023-05-17T07:35:22.495Z,0.50
2023-05-17T07:36:22.727Z,0.55
2023-05-17T07:37:22.578Z,0.52
2023-05-17T07:38:22.575Z,0.50
2023-05-17T07:39:22.591Z,0.50
2023-05-17T07:40:22.591Z,0.54
2023-05-17T07:41:22.652Z,0.57
2023-05-17T07:42:22.651Z,0.58
2023-05-17T07:43:22.769Z,0.58
2023-05-17T07:44:22.714Z,0.58
2023-05-17T07:45:22.692Z,0.58
2023-05-17T07:46:22.711Z,0.60
2023-05-17T07:47:22.703Z,0.59
2023-05-17T07:48:22.784Z,0.57
2023-05-17T07:49:22.850Z,0.54
2023-05-17T07:50:22.795Z,0.56
2023-05-17T07:51:22.785Z,0.58
2023-05-17T07:52:22.839Z,0.59
2023-05-17T07:53:22.876Z,0.61
2023-05-17T07:54:22.856Z,0.60
2023-05-17T07:55:22.835Z,0.57
2023-05-17T07:56:22.862Z,0.59
2023-05-17T07:57:22.870Z,0.59
2023-05-17T07:58:22.922Z,0.58
2023-05-17T07:59:22.937Z,0.56
2023-05-17T08:00:22.928Z,0.57
2023-05-17T08:01:22.939Z,0.57
2023-05-17T08:02:22.970Z,0.57
2023-05-17T08:03:23.128Z,0.55
2023-05-17T08:04:23.062Z,0.54
2023-05-17T08:05:22.956Z,0.53
2023-05-17T08:06:23.010Z,0.56
2023-05-17T08:07:23.007Z,0.57
2023-05-17T08:08:23.013Z,0.56
2023-05-17T08:09:23.033Z,0.53
2023-05-17T08:10:23.068Z,0.53
2023-05-17T08:11:23.262Z,0.53
2023-05-17T08:12:23.041Z,0.54
2023-05-17T08:13:23.124Z,0.53
2023-05-17T08:14:23.123Z,0.54
2023-05-17T08:15:23.276Z,0.57
2023-05-17T08:16:23.096Z,0.55
2023-05-17T08:17:23.158Z,0.55
2023-05-17T08:18:23.198Z,0.57
2023-05-17T08:19:23.247Z,0.57
2023-05-17T08:20:23.129Z,0.57
2023-05-17T08:21:23.140Z,0.57
2023-05-17T08:22:23.143Z,0.55
2023-05-17T08:23:23.178Z,0.54
2023-05-17T08:24:23.198Z,0.53
2023-05-17T08:25:23.193Z,0.50
2023-05-17T08:26:23.276Z,0.42
2023-05-17T08:27:23.244Z,0.43
2023-05-17T08:28:23.429Z,0.49
2023-05-17T08:29:23.293Z,0.50
2023-05-17T08:31:23.360Z,0.50
2023-05-17T08:32:23.360Z,0.47
2023-05-17T08:33:23.379Z,0.41
2023-05-17T08:34:23.265Z,0.39
2023-05-17T08:35:23.995Z,0.38
2023-05-17T08:36:23.269Z,0.46
2023-05-17T08:37:23.344Z,0.50
2023-05-17T08:38:23.284Z,0.50
2023-05-17T08:39:23.278Z,0.50
2023-05-17T08:40:23.422Z,0.51
2023-05-17T08:41:23.251Z,0.57
2023-05-17T08:42:23.210Z,0.60
2023-05-17T08:43:24.225Z,0.64
2023-05-17T08:44:23.314Z,0.69
2023-05-17T08:45:23.208Z,0.71
2023-05-17T08:46:23.156Z,0.76
2023-05-17T08:47:23.184Z,0.82
2023-05-17T08:48:23.377Z,0.88
2023-05-17T08:49:23.234Z,0.92
2023-05-17T08:50:23.117Z,0.89
2023-05-17T08:51:23.163Z,0.90
2023-05-17T08:52:23.141Z,0.94
2023-05-17T08:53:23.223Z,0.90
2023-05-17T08:54:23.152Z,0.93
2023-05-17T08:55:23.122Z,0.96
2023-05-17T08:56:23.106Z,0.99
2023-05-17T08:57:23.100Z,1.04
2023-05-17T08:58:23.097Z,1.01
2023-05-17T08:59:23.111Z,1.08
2023-05-17T09:00:23.085Z,1.02
2023-05-17T09:01:25.112Z,0.95
2023-05-17T09:02:23.123Z,0.95
2023-05-17T09:03:23.182Z,0.95
2023-05-17T09:04:23.118Z,0.96
2023-05-17T09:05:23.070Z,1.03
2023-05-17T09:06:23.098Z,1.03
2023-05-17T09:07:23.025Z,1.04
2023-05-17T09:08:23.029Z,1.06
2023-05-17T09:09:23.003Z,1.07
2023-05-17T09:10:23.065Z,1.03
2023-05-17T09:11:22.999Z,1.04
2023-05-17T09:12:25.393Z,1.13
2023-05-17T09:13:23.037Z,1.13
2023-05-17T09:14:22.970Z,1.08
2023-05-17T09:15:23.023Z,1.03
2023-05-17T09:16:22.986Z,1.12
2023-05-17T09:17:23.184Z,1.14
2023-05-17T09:18:23.001Z,1.17
2023-05-17T09:19:24.552Z,1.24
2023-05-17T09:20:23.115Z,1.31
2023-05-17T09:21:22.925Z,1.33
2023-05-17T09:22:22.926Z,1.27
2023-05-17T09:23:23.002Z,1.24
2023-05-17T09:24:24.008Z,1.28
2023-05-17T09:25:22.905Z,1.33
2023-05-17T09:26:22.899Z,1.30
2023-05-17T09:27:22.904Z,1.33
2023-05-17T09:28:22.874Z,1.37
2023-05-17T09:29:22.870Z,1.35
2023-05-17T09:30:25.144Z,1.29
2023-05-17T09:31:22.950Z,0.87
2023-05-17T09:32:23.087Z,0.65
2023-05-17T09:33:23.022Z,0.66
2023-05-17T09:34:23.026Z,0.65
2023-05-17T09:35:23.085Z,0.60
2023-05-17T09:36:23.088Z,0.65
2023-05-17T09:37:23.131Z,0.69
2023-05-17T09:38:24.873Z,0.70
2023-05-17T09:39:23.199Z,0.74
2023-05-17T09:40:23.284Z,0.72
2023-05-17T09:41:23.294Z,0.70
2023-05-17T09:42:23.294Z,0.80
2023-05-17T09:43:23.348Z,0.81
2023-05-17T09:44:23.535Z,0.83
2023-05-17T09:45:23.373Z,0.84
2023-05-17T09:46:23.361Z,0.83
2023-05-17T09:47:23.374Z,0.90
2023-05-17T09:48:23.457Z,1.00
2023-05-17T09:49:23.438Z,1.04
2023-05-17T09:50:26.024Z,1.07
2023-05-17T09:51:23.530Z,1.15
2023-05-17T09:52:23.503Z,1.14
2023-05-17T09:53:23.475Z,1.21
2023-05-17T09:54:23.483Z,1.22
2023-05-17T09:55:23.447Z,1.29
2023-05-17T09:56:23.461Z,1.32
2023-05-17T09:57:23.479Z,1.31
2023-05-17T09:58:23.467Z,1.23
2023-05-17T09:59:23.485Z,1.37
2023-05-17T10:00:23.469Z,1.27
2023-05-17T10:01:23.446Z,1.32
2023-05-17T10:02:23.494Z,1.27
2023-05-17T10:03:23.543Z,1.31
2023-05-17T10:04:23.419Z,1.30
2023-05-17T10:05:23.514Z,1.29
2023-05-17T10:06:38.355Z,1.33
2023-05-17T10:07:24.395Z,1.34
2023-05-17T10:08:23.402Z,1.36
2023-05-17T10:09:23.428Z,1.42
2023-05-17T10:10:23.394Z,1.53
2023-05-17T10:11:23.369Z,1.80
2023-05-17T10:12:23.819Z,1.75
2023-05-17T10:13:23.349Z,1.77
2023-05-17T10:14:23.503Z,1.84
2023-05-17T10:15:23.355Z,1.80
2023-05-17T10:16:23.292Z,1.87
2023-05-17T10:17:23.330Z,1.85
2023-05-17T10:18:23.368Z,1.82
2023-05-17T10:19:23.473Z,1.86
2023-05-17T10:20:23.282Z,1.86
2023-05-17T10:21:23.283Z,1.82
2023-05-17T10:22:24.014Z,1.82
2023-05-17T10:23:23.359Z,1.81
2023-05-17T10:24:23.407Z,1.82
2023-05-17T10:25:23.389Z,1.90
2023-05-17T10:26:23.395Z,1.80
2023-05-17T10:27:23.451Z,1.72
2023-05-17T10:28:23.487Z,1.67
2023-05-17T10:29:23.447Z,1.63
2023-05-17T10:30:23.517Z,1.49
2023-05-17T10:31:23.538Z,1.41
2023-05-17T10:32:23.756Z,1.38
2023-05-17T10:33:23.664Z,1.32
2023-05-17T10:34:23.673Z,1.38
2023-05-17T10:35:23.632Z,1.43
2023-05-17T10:36:23.673Z,1.50
2023-05-17T10:37:23.720Z,1.55
2023-05-17T10:38:28.892Z,1.45
2023-05-17T10:39:24.748Z,1.45
2023-05-17T10:40:23.735Z,1.47
2023-05-17T10:41:23.749Z,1.51
2023-05-17T10:42:23.704Z,1.56
2023-05-17T10:43:23.679Z,1.58
2023-05-17T10:44:23.709Z,1.63
2023-05-17T10:45:23.666Z,1.69
2023-05-17T10:46:23.714Z,1.61
2023-05-17T10:47:23.784Z,1.49
2023-05-17T10:48:23.697Z,1.46
2023-05-17T10:49:24.689Z,1.50
2023-05-17T10:50:23.627Z,1.72
2023-05-17T10:51:23.660Z,1.80
2023-05-17T10:52:23.646Z,1.82
2023-05-17T10:53:23.615Z,1.85
2023-05-17T10:54:23.647Z,1.84
2023-05-17T10:55:23.582Z,1.79
2023-05-17T10:56:23.598Z,1.72
2023-05-17T10:57:23.610Z,1.71
2023-05-17T10:58:23.562Z,1.68
2023-05-17T10:59:23.542Z,1.76
2023-05-17T11:00:23.534Z,1.68
2023-05-17T11:01:23.565Z,1.67
2023-05-17T11:02:23.575Z,1.61
2023-05-17T11:03:23.545Z,1.54
2023-05-17T11:04:23.563Z,1.56
2023-05-17T11:05:23.610Z,1.55
2023-05-17T11:06:25.313Z,1.52
2023-05-17T11:07:23.547Z,1.52
2023-05-17T11:08:23.610Z,1.52
2023-05-17T11:09:23.604Z,1.45
2023-05-17T11:10:23.625Z,1.49
2023-05-17T11:11:23.664Z,1.53
2023-05-17T11:12:23.693Z,1.47
2023-05-17T11:13:23.675Z,1.45
2023-05-17T11:14:23.696Z,1.38
2023-05-17T11:15:23.715Z,1.44
2023-05-17T11:16:23.765Z,1.34
2023-05-17T11:17:23.815Z,1.25
2023-05-17T11:18:30.691Z,1.33
2023-05-17T11:19:24.875Z,1.33
2023-05-17T11:20:23.932Z,1.27
2023-05-17T11:21:23.835Z,1.33
2023-05-17T11:22:23.778Z,1.30
2023-05-17T11:23:23.807Z,1.28
2023-05-17T11:24:23.773Z,1.28
2023-05-17T11:25:23.760Z,1.20
2023-05-17T11:26:23.761Z,1.22
2023-05-17T11:27:23.809Z,1.22
2023-05-17T11:28:23.718Z,1.16
2023-05-17T11:29:23.779Z,1.18
2023-05-17T11:30:23.793Z,1.17
2023-05-17T11:31:23.729Z,1.22
2023-05-17T11:32:23.759Z,1.16
2023-05-17T11:33:32.816Z,1.23
2023-05-17T11:34:24.784Z,1.24
2023-05-17T11:35:23.684Z,1.24
2023-05-17T11:36:23.684Z,1.25
2023-05-17T11:37:23.737Z,1.28
2023-05-17T11:38:23.657Z,1.34
2023-05-17T11:39:23.733Z,1.36
2023-05-17T11:40:23.646Z,1.41
2023-05-17T11:41:26.894Z,1.44
2023-05-17T11:42:23.614Z,1.45
2023-05-17T11:43:23.632Z,1.45
2023-05-17T11:44:23.656Z,1.46
2023-05-17T11:45:24.869Z,1.52
2023-05-17T11:46:23.634Z,1.57
2023-05-17T11:47:23.669Z,1.59
2023-05-17T11:48:23.805Z,1.59
2023-05-17T11:49:33.909Z,1.61
2023-05-17T11:50:24.576Z,1.61
2023-05-17T11:51:24.896Z,1.62
2023-05-17T11:52:23.573Z,1.64
2023-05-17T11:53:23.578Z,1.65
2023-05-17T11:54:23.562Z,1.71
2023-05-17T11:55:23.536Z,1.72
2023-05-17T11:56:29.048Z,1.71
2023-05-17T11:57:24.524Z,1.71
2023-05-17T11:58:23.548Z,1.72
2023-05-17T11:59:23.543Z,1.72
2023-05-17T12:00:23.512Z,1.76
2023-05-17T12:01:23.542Z,1.78
2023-05-17T12:02:23.509Z,1.82
2023-05-17T12:03:23.475Z,1.82
2023-05-17T12:04:23.480Z,1.82
2023-05-17T12:05:23.474Z,1.79
2023-05-17T12:06:23.505Z,1.83
2023-05-17T12:07:23.449Z,1.84
2023-05-17T12:08:23.438Z,1.81
2023-05-17T12:09:23.445Z,1.85
2023-05-17T12:10:23.450Z,1.83
2023-05-17T12:11:23.397Z,1.85
2023-05-17T12:12:23.462Z,1.90
2023-05-17T12:13:23.399Z,1.88
2023-05-17T12:14:23.400Z,1.90
2023-05-17T12:15:23.439Z,1.87
2023-05-17T12:16:23.373Z,1.87
2023-05-17T12:17:23.432Z,1.91
2023-05-17T12:18:23.374Z,1.91
2023-05-17T12:19:23.660Z,1.93
2023-05-17T12:20:23.364Z,1.90
2023-05-17T12:21:23.348Z,1.92
2023-05-17T12:22:23.341Z,1.92
2023-05-17T12:23:23.400Z,1.93
2023-05-17T12:24:23.367Z,1.93
2023-05-17T12:25:23.310Z,1.92
2023-05-17T12:26:23.321Z,1.93
2023-05-17T12:27:23.321Z,1.92
2023-05-17T12:28:23.283Z,1.96
2023-05-17T12:29:23.299Z,1.95
2023-05-17T12:30:23.257Z,1.98
2023-05-17T12:31:23.273Z,2.00
2023-05-17T12:32:23.325Z,1.99
2023-05-17T12:33:23.388Z,1.96
2023-05-17T12:34:23.354Z,2.00
2023-05-17T12:35:23.371Z,2.00
2023-05-17T12:36:23.378Z,2.02
2023-05-17T12:37:23.390Z,2.01
2023-05-17T12:38:23.415Z,1.98
2023-05-17T12:39:23.438Z,2.00
2023-05-17T12:40:23.482Z,2.00
2023-05-17T12:41:23.496Z,2.02
2023-05-17T12:42:23.479Z,2.02
2023-05-17T12:43:23.514Z,2.01
2023-05-17T12:44:23.543Z,2.05
2023-05-17T12:45:23.572Z,2.03
2023-05-17T12:46:23.597Z,2.02
2023-05-17T12:47:23.622Z,2.02
2023-05-17T12:48:23.702Z,2.02
2023-05-17T12:49:23.706Z,2.03
2023-05-17T12:50:23.682Z,2.01
2023-05-17T12:51:23.726Z,2.04
2023-05-17T12:52:23.765Z,2.05
2023-05-17T12:53:23.772Z,2.00
2023-05-17T12:54:23.835Z,2.01
2023-05-17T12:55:23.809Z,1.98
2023-05-17T12:56:23.857Z,2.05
2023-05-17T12:57:23.880Z,2.05
2023-05-17T12:58:23.903Z,2.00
2023-05-17T12:59:23.943Z,2.05
2023-05-17T13:00:23.932Z,2.03
2023-05-17T13:01:24.005Z,2.04
2023-05-17T13:02:24.209Z,2.04
2023-05-17T13:03:24.132Z,2.02
2023-05-17T13:04:24.093Z,2.03
2023-05-17T13:05:24.105Z,2.07
2023-05-17T13:06:24.099Z,2.01
2023-05-17T13:07:24.226Z,2.04
2023-05-17T13:08:24.129Z,2.04
2023-05-17T13:09:24.282Z,2.01
2023-05-17T13:10:24.188Z,2.03
2023-05-17T13:11:24.196Z,2.02
2023-05-17T13:12:24.280Z,2.02
2023-05-17T13:13:24.250Z,2.01
2023-05-17T13:14:24.286Z,2.01
2023-05-17T13:15:24.293Z,2.00
2023-05-17T13:16:24.325Z,2.00
2023-05-17T13:17:24.408Z,2.01
2023-05-17T13:18:24.410Z,2.05
2023-05-17T13:19:24.430Z,2.06